createdAt,value
2022-08-07T00:00:27.720Z,5.25
2022-08-07T00:10:31.002Z,6.50
2022-08-07T00:20:35.463Z,6.72
2022-08-07T00:30:37.020Z,6.88
2022-08-07T00:40:39.859Z,5.83
2022-08-07T00:50:46.572Z,6.18
2022-08-07T01:00:53.496Z,6.70
2022-08-07T01:10:58.453Z,6.72
2022-08-07T01:21:17.761Z,6.53
2022-08-07T01:31:41.701Z,5.88
2022-08-07T01:42:01.504Z,6.60
2022-08-07T01:52:10.011Z,5.95
2022-08-07T02:03:12.286Z,6.53
2022-08-07T02:12:46.310Z,6.40
2022-08-07T02:22:59.869Z,6.88
2022-08-07T02:33:09.535Z,6.22
2022-08-07T02:43:15.309Z,6.60
2022-08-07T02:53:27.362Z,6.38
2022-08-07T03:03:49.239Z,7.47
2022-08-07T03:13:57.638Z,7.47
2022-08-07T03:24:20.083Z,7.82
2022-08-07T03:34:27.789Z,7.25
2022-08-07T03:44:35.271Z,7.53
2022-08-07T03:54:54.476Z,7.38
2022-08-07T04:04:57.940Z,7.60
2022-08-07T04:15:01.116Z,8.40
2022-08-07T04:25:08.779Z,8.65
2022-08-07T04:35:16.295Z,9.05
2022-08-07T04:45:23.335Z,8.90
2022-08-07T04:58:13.809Z,9.93
2022-08-07T05:06:28.793Z,10.18
2022-08-07T05:16:52.633Z,7.53
2022-08-07T05:26:58.733Z,8.10
2022-08-07T05:37:05.834Z,7.75
2022-08-07T05:47:18.804Z,6.97
2022-08-07T05:57:26.543Z,6.47
2022-08-07T06:08:13.468Z,5.03
2022-08-07T06:17:57.683Z,4.80
2022-08-07T06:28:09.331Z,4.55
2022-08-07T06:38:20.005Z,4.63
2022-08-07T06:48:25.070Z,4.10
2022-08-07T06:58:29.626Z,3.75
2022-08-07T07:08:39.666Z,3.50
2022-08-07T07:18:51.862Z,4.22
2022-08-07T07:29:39.250Z,3.92
2022-08-07T07:39:26.333Z,3.90
2022-08-07T07:50:36.040Z,3.65
2022-08-07T08:00:11.851Z,4.05
2022-08-07T08:10:35.505Z,4.38
2022-08-07T08:20:40.597Z,3.45
2022-08-07T08:30:51.098Z,3.70
2022-08-07T08:41:15.734Z,4.40
2022-08-07T08:52:12.893Z,4.32
2022-08-07T09:02:34.586Z,3.50
2022-08-07T09:12:43.025Z,3.20
2022-08-07T09:24:30.717Z,3.80
2022-08-07T09:33:53.026Z,3.17
2022-08-07T09:44:32.950Z,3.05
2022-08-07T09:54:47.581Z,3.20
2022-08-07T10:05:58.924Z,3.47
2022-08-07T10:16:16.383Z,2.70
2022-08-07T10:26:42.020Z,3.05
2022-08-07T10:37:04.828Z,3.08
2022-08-07T10:47:52.582Z,2.85
2022-08-07T10:57:56.429Z,2.42
2022-08-07T11:08:16.543Z,3.13
2022-08-07T11:18:34.897Z,3.28
2022-08-07T11:28:53.415Z,2.75
2022-08-07T11:39:07.001Z,2.55
2022-08-07T11:49:50.606Z,2.30
2022-08-07T12:00:12.045Z,3.43
2022-08-07T12:10:17.435Z,2.75
2022-08-07T12:20:46.415Z,3.42
2022-08-07T12:30:54.161Z,3.55
2022-08-07T12:40:59.261Z,3.60
2022-08-07T12:51:17.149Z,3.25
2022-08-07T13:01:32.338Z,3.22
2022-08-07T13:12:03.107Z,3.20
2022-08-07T13:22:28.111Z,3.45
2022-08-07T13:32:40.829Z,2.92
2022-08-07T13:42:44.009Z,2.92
2022-08-07T13:52:48.575Z,3.05
2022-08-07T14:02:54.137Z,3.08
2022-08-07T14:13:00.578Z,2.80
2022-08-07T14:23:11.123Z,3.97
2022-08-07T14:33:14.992Z,3.05
2022-08-07T14:43:55.428Z,3.20
2022-08-07T15:04:06.182Z,2.97
2022-08-07T15:14:12.403Z,3.35
2022-08-07T15:25:14.758Z,2.00
2022-08-07T15:56:02.557Z,2.28
2022-08-07T16:06:09.472Z,2.90
2022-08-07T16:16:43.247Z,3.15
2022-08-07T16:26:59.568Z,3.28
2022-08-07T16:38:04.710Z,2.70
2022-08-07T16:48:13.654Z,2.70
2022-08-07T16:58:19.483Z,2.72
2022-08-07T17:08:57.222Z,3.20
2022-08-07T17:19:03.773Z,2.58
2022-08-07T17:29:18.382Z,2.70
2022-08-07T17:39:57.753Z,2.85
2022-08-07T17:50:16.713Z,3.40
2022-08-07T18:00:33.389Z,2.72
2022-08-07T18:12:06.542Z,2.50
2022-08-07T18:21:37.355Z,3.13
2022-08-07T18:32:16.901Z,3.17
2022-08-07T18:42:29.031Z,3.00
2022-08-07T18:53:05.758Z,3.40
2022-08-07T19:03:35.443Z,3.30
2022-08-07T19:14:17.156Z,3.33
2022-08-07T19:24:30.845Z,4.65
2022-08-07T19:34:38.458Z,2.92
2022-08-07T19:44:43.007Z,5.03
2022-08-07T19:54:56.165Z,3.85
2022-08-07T20:05:02.633Z,4.13
2022-08-07T20:15:18.834Z,3.30
2022-08-07T20:25:23.988Z,3.88
2022-08-07T20:35:32.416Z,3.30
2022-08-07T20:46:26.720Z,4.38
2022-08-07T20:56:01.164Z,3.90
2022-08-07T21:06:21.452Z,3.85
2022-08-07T21:16:33.445Z,4.55
2022-08-07T21:26:58.696Z,4.97
2022-08-07T21:37:11.228Z,4.57
2022-08-07T21:47:37.623Z,4.70
2022-08-07T21:57:52.216Z,4.30
2022-08-07T22:07:59.369Z,4.15
2022-08-07T22:18:11.481Z,4.20
2022-08-07T22:28:41.385Z,4.47
2022-08-07T22:39:04.765Z,5.00
2022-08-07T22:49:15.841Z,4.85
2022-08-07T23:00:02.563Z,4.45
2022-08-07T23:10:36.433Z,4.32
2022-08-07T23:20:53.248Z,4.38
2022-08-07T23:31:05.719Z,4.32
2022-08-07T23:41:14.662Z,5.03
2022-08-07T23:53:05.949Z,4.60
